New Delhi / Safdarjung, India

1:35 PM IST on December 03, 2016 (GMT +0530)
New Delhi Safdarjung | | Change Station

Elev 692 ft 28.58 °N, 77.20 °E | Updated 5 minutes ago

Smoke
Smoke
79 °F
Feels Like 79 °F
N
7
Wind Variable Wind from WSW

Today
High -- | Low -- °F
--% Chance of Precip.
Yesterday
High -- | Low -- °F
Precip. -- in
Pressure 30.09 in
Visibility 1.2 miles
Clouds
Dew Point 48 °F
Humidity 34%
Rainfall 0.00 in
Snow Depth Not available.
6:58 AM 5:24 PM
Waxing Crescent, 13% visible
METAR VIDD 030800Z 25006KT 2000 FU NSC 26/09 Q1019 NOSIG
Pressure 30.09 in
Visibility 1.2 miles
Clouds
Dew Point 48 °F
Humidity 34%
Rainfall 0.00 in
Snow Depth Not available.
6:58 AM 5:24 PM
Waxing Crescent, 13% visible
METAR VIDD 030800Z 25006KT 2000 FU NSC 26/09 Q1019 NOSIG

10-Day Weather Forecast

No radar image for this location.
×

Almanac

Astronomy

Dec. 03, 2016 Rise Set
Actual Time
Civil Twilight
Nautical Twilight
Astronomical Twilight
Moon
Length of Visible Light
Length of Day
Tomorrow will be .
, % of the Moon is Illuminated

Today's Extremes

Country Highs Country Lows

Community

WunderPhotos

Upload Photos

1,955,432 photos uploaded!

WunderBlog® & News

Nearby

Air Quality

  Air Quality AQ Index Pollutant
Not available.

Snow Depth

Station Depth Elevation

Earthquake Activity

City Distance Mag. Time & Date
Minimum magnitude displayed is 2.5.

Coastal Water Temperatures

Place Temperature

Stations

Nearby Weather Stations

Station Location Temp. Windchill Dew Point Humidity Wind Precip. Elev Updated Type